»·PEaware :: WAT169 KLAX-KELP

WAT169 :: KLAX-KELP

FLIGHT INFORMATION

Flight Status: Arrived
Operator:
Walker Air Transport
More flights by this operator :: More flights under this callsign
Pilot: Marty P. (27464)
Aircraft: BOEING 737-800
(B738)
More flights by this aircraft type
Origin: KLAX Los Angeles Intl
United States
Destination: KELP El Paso Intl
United States
More flights between these airports :: More routes between these airports
Route: +DOTSS2 CNERY BLH J169 TFD TEEES MOLLY4
File this flight plan on PilotEdge
Remarks:
Altitude:
(Current/Filed)
39,000ft
Speed:
(Current/Filed)
480kts
Departed: 17-Oct-20 07:38 AM
Arrived: 17-Oct-20 09:08 AM
Distance/Time
Traveled:
619nm/1:29
Distance/Time
To Go:
Arrived

Flight Plot

Page will automatically refresh every two minutes.

Flight plan parsing failed; only flown route is shown


Map Options




Map Legend


Flown Route
Filed Route
Departure Airport
Arrival Airport
Navaid (VOR, NDB)
Fix

Horizontal Profiles

Position Reports

Time Latitude Longitude Heading Altitude Ground
Speed
17-Oct-20 07:14 33.941008 -118.401425 266 121ft 0kts
17-Oct-20 07:15 33.941008 -118.401425 266 121ft 0kts
17-Oct-20 07:16 33.941008 -118.401425 266 121ft 0kts
17-Oct-20 07:17 33.941008 -118.401425 266 121ft 0kts
17-Oct-20 07:18 33.941008 -118.401425 266 121ft 0kts
17-Oct-20 07:19 33.941008 -118.401425 266 121ft 0kts
17-Oct-20 07:20 33.941008 -118.401425 266 121ft 0kts
17-Oct-20 07:21 33.941008 -118.401425 266 121ft 0kts
17-Oct-20 07:22 33.941008 -118.401425 266 121ft 0kts
17-Oct-20 07:23 33.941008 -118.401425 266 121ft 0kts
17-Oct-20 07:24 33.941029 -118.401170 248 121ft 2kts
17-Oct-20 07:25 33.941424 -118.400879 172 119ft 0kts
17-Oct-20 07:26 33.940431 -118.400736 173 120ft 0kts
17-Oct-20 07:27 33.940431 -118.400736 173 120ft 0kts
17-Oct-20 07:28 33.940431 -118.400736 173 120ft 0kts
17-Oct-20 07:29 33.940431 -118.400736 173 120ft 0kts
17-Oct-20 07:30 33.940431 -118.400736 173 120ft 0kts
17-Oct-20 07:31 33.938811 -118.399880 91 118ft 6kts
17-Oct-20 07:32 33.939310 -118.394836 83 110ft 19kts
17-Oct-20 07:33 33.940071 -118.387385 83 105ft 23kts
17-Oct-20 07:34 33.940724 -118.381013 83 102ft 3kts
17-Oct-20 07:35 33.940742 -118.380460 101 102ft 1kts
17-Oct-20 07:36 33.939729 -118.381262 262 102ft 18kts
17-Oct-20 07:37 33.935549 -118.423158 262 1127ft 183kts
17-Oct-20 07:38 33.913020 -118.489199 229 3546ft 244kts
17-Oct-20 07:39 33.860656 -118.542165 205 6988ft 257kts
17-Oct-20 07:40 33.789482 -118.545787 169 10354ft 278kts
17-Oct-20 07:41 33.707036 -118.503104 136 11422ft 382kts
17-Oct-20 07:42 33.657796 -118.386847 109 14259ft 405kts
17-Oct-20 07:43 33.644759 -118.251246 90 16968ft 419kts
17-Oct-20 07:44 33.644774 -118.109490 90 19480ft 430kts
17-Oct-20 07:45 33.644769 -117.964252 90 21618ft 444kts
17-Oct-20 07:46 33.638352 -117.815167 100 23561ft 455kts
17-Oct-20 07:47 33.609558 -117.665846 105 25215ft 467kts
17-Oct-20 07:48 33.574181 -117.513981 106 26677ft 479kts
17-Oct-20 07:49 33.536324 -117.358761 107 28097ft 489kts
17-Oct-20 07:50 33.508765 -117.198651 97 29704ft 492kts
17-Oct-20 07:51 33.502875 -117.034747 92 31248ft 493kts
17-Oct-20 07:52 33.500219 -116.871391 92 32656ft 492kts
17-Oct-20 07:53 33.497667 -116.707293 92 33922ft 492kts
17-Oct-20 07:54 33.494989 -116.543421 92 35170ft 490kts
17-Oct-20 07:55 33.492110 -116.380871 92 36278ft 488kts
17-Oct-20 07:56 33.489343 -116.218308 92 37159ft 489kts
17-Oct-20 07:57 33.489429 -116.055569 84 37898ft 491kts
17-Oct-20 07:58 33.526134 -115.897798 71 38550ft 493kts
17-Oct-20 07:59 33.571547 -115.742330 71 38928ft 499kts
17-Oct-20 08:00 33.609886 -115.581081 86 38931ft 507kts
17-Oct-20 08:01 33.612093 -115.410831 92 38927ft 514kts
17-Oct-20 08:02 33.609180 -115.239237 93 38946ft 517kts
17-Oct-20 08:03 33.605109 -115.066751 93 38954ft 519kts
17-Oct-20 08:04 33.600541 -114.893461 93 38954ft 521kts
17-Oct-20 08:05 33.592702 -114.720120 97 38956ft 521kts
17-Oct-20 08:06 33.577218 -114.547186 97 38954ft 523kts
17-Oct-20 08:07 33.561574 -114.373093 97 38954ft 525kts
17-Oct-20 08:08 33.545822 -114.199163 98 38953ft 525kts
17-Oct-20 08:09 33.529775 -114.025074 98 38948ft 526kts
17-Oct-20 08:11 33.513398 -113.851416 98 38971ft 526kts
17-Oct-20 08:12 33.496171 -113.677549 98 38981ft 527kts
17-Oct-20 08:13 33.479180 -113.503290 97 39016ft 527kts
17-Oct-20 08:14 33.446712 -113.333287 111 39019ft 523kts
17-Oct-20 08:15 33.391925 -113.172403 116 39018ft 521kts
17-Oct-20 08:16 33.331616 -113.015174 117 39018ft 521kts
17-Oct-20 08:17 33.269870 -112.858373 117 39017ft 522kts
17-Oct-20 08:18 33.207576 -112.701676 117 38996ft 523kts
17-Oct-20 08:19 33.145174 -112.545603 117 38975ft 523kts
17-Oct-20 08:20 33.082278 -112.389054 117 38973ft 524kts
17-Oct-20 08:21 33.019174 -112.232597 118 38981ft 523kts
17-Oct-20 08:22 32.956071 -112.076892 118 39013ft 522kts
17-Oct-20 08:23 32.897148 -111.919237 110 39028ft 524kts
17-Oct-20 08:24 32.862269 -111.750721 101 39055ft 527kts
17-Oct-20 08:25 32.835412 -111.579690 101 39055ft 527kts
17-Oct-20 08:26 32.808612 -111.407959 101 39053ft 529kts
17-Oct-20 08:26 32.786143 -111.264522 102 39054ft 529kts
17-Oct-20 08:28 32.754486 -111.064169 102 39063ft 529kts
17-Oct-20 08:28 32.731654 -110.921142 102 39103ft 529kts
17-Oct-20 08:30 32.699461 -110.721386 101 39118ft 530kts
17-Oct-20 08:30 32.676209 -110.578397 101 39120ft 530kts
17-Oct-20 08:32 32.643309 -110.377852 101 39117ft 531kts
17-Oct-20 08:32 32.619731 -110.234979 102 39118ft 530kts
17-Oct-20 08:33 32.591128 -110.063501 102 39127ft 530kts
17-Oct-20 08:34 32.562373 -109.892656 102 39146ft 530kts
17-Oct-20 08:35 32.533308 -109.721472 102 39145ft 530kts
17-Oct-20 08:36 32.504063 -109.550646 102 39145ft 531kts
17-Oct-20 08:37 32.474381 -109.378861 102 39147ft 532kts
17-Oct-20 08:38 32.444644 -109.207933 103 39154ft 532kts
17-Oct-20 08:39 32.414528 -109.036376 103 39212ft 532kts
17-Oct-20 08:40 32.384226 -108.865324 102 39175ft 534kts
17-Oct-20 08:41 32.354093 -108.696410 103 39237ft 499kts
17-Oct-20 08:42 32.325154 -108.535784 102 38222ft 517kts
17-Oct-20 08:43 32.295020 -108.369737 102 34838ft 516kts
17-Oct-20 08:44 32.266510 -108.205356 98 32039ft 516kts
17-Oct-20 08:45 32.245825 -108.035858 97 28025ft 523kts
17-Oct-20 08:46 32.227146 -107.875533 96 24289ft 462kts
17-Oct-20 08:47 32.210046 -107.728850 96 23426ft 454kts
17-Oct-20 08:48 32.193341 -107.586075 96 21580ft 430kts
17-Oct-20 08:49 32.177212 -107.447909 96 19781ft 421kts
17-Oct-20 08:50 32.161274 -107.312783 97 17976ft 408kts
17-Oct-20 08:51 32.146026 -107.184840 97 16378ft 380kts
17-Oct-20 08:52 32.131536 -107.064387 97 14877ft 362kts
17-Oct-20 08:53 32.115007 -106.949451 104 13633ft 348kts
17-Oct-20 08:54 32.090798 -106.841120 103 12287ft 333kts
17-Oct-20 08:55 32.067086 -106.739846 105 11070ft 301kts
17-Oct-20 08:56 32.044830 -106.648751 106 9534ft 281kts
17-Oct-20 08:57 32.024449 -106.565810 107 9020ft 248kts
17-Oct-20 08:58 32.004790 -106.486683 107 9009ft 250kts
17-Oct-20 08:59 31.993404 -106.404489 97 8092ft 253kts
17-Oct-20 09:00 31.960193 -106.335779 134 5952ft 243kts
17-Oct-20 09:01 31.920721 -106.286832 135 5982ft 195kts
17-Oct-20 09:02 31.881137 -106.261285 171 6009ft 156kts
17-Oct-20 09:03 31.837577 -106.257385 177 5980ft 157kts
17-Oct-20 09:04 31.796398 -106.264387 241 5900ft 161kts
17-Oct-20 09:05 31.799399 -106.316097 268 4491ft 156kts
17-Oct-20 09:06 31.800986 -106.367123 272 3960ft 129kts
17-Oct-20 09:07 31.800680 -106.381270 184 3941ft 0kts
17-Oct-20 09:08 31.799928 -106.382517 269 3941ft 21kts
17-Oct-20 09:09 31.800805 -106.391737 323 3928ft 27kts

Navigation Log

Ident Type
Flight plan parsing failed, navigation log unavailable